Time;durP1;ratioP1;P1;durP2;ratioP2;P2;SDS_P1;SDS_P2;PMS_P1;PMS_P2;Temp;Humidity;BMP_temperature;BMP_pressure;BME280_temperature;BME280_humidity;BME280_pressure;Samples;Min_cycle;Max_cycle;Signal;HPM_P1;HPM_P2
2022/11/08 00:03:42;;;;;;;14.93;1.75;;;13.80;99.90;;;;;;5013495;28;20178;-79
2022/11/08 00:14:20;;;;;;;5.40;1.55;;;13.80;99.90;;;;;;5012839;28;20191;-79
2022/11/08 00:16:45;;;;;;;2.83;1.20;;;13.80;99.90;;;;;;5012756;28;20161;-79
2022/11/08 00:19:11;;;;;;;6.93;1.65;;;13.80;99.90;;;;;;4995051;28;20275;-79
2022/11/08 00:21:36;;;;;;;9.45;1.42;;;13.80;99.90;;;;;;5012766;28;20171;-79
2022/11/08 00:24:02;;;;;;;4.85;1.60;;;13.70;99.90;;;;;;5012731;28;20204;-79
2022/11/08 00:26:28;;;;;;;5.90;1.58;;;13.80;99.90;;;;;;4995211;28;20169;-79
2022/11/08 00:28:53;;;;;;;5.97;1.60;;;13.70;99.90;;;;;;5012859;28;20188;-79
2022/11/08 00:31:19;;;;;;;4.50;1.20;;;13.80;99.90;;;;;;5012676;28;20176;-79
2022/11/08 00:33:44;;;;;;;7.45;1.50;;;13.70;99.90;;;;;;4995061;28;20169;-79
2022/11/08 00:36:10;;;;;;;5.40;1.90;;;13.60;99.90;;;;;;5012770;28;20184;-79
2022/11/08 00:38:39;;;;;;;1.70;0.98;;;13.70;99.90;;;;;;5012579;28;20288;-79
2022/11/08 00:41:05;;;;;;;4.50;1.13;;;13.60;99.90;;;;;;4995046;28;20200;-79
2022/11/08 00:43:30;;;;;;;2.30;1.27;;;13.70;99.90;;;;;;5012613;28;20203;-79
2022/11/08 00:45:56;;;;;;;3.10;1.30;;;13.60;99.90;;;;;;5012797;28;20571;-79
2022/11/08 00:48:22;;;;;;;4.10;1.38;;;13.70;99.90;;;;;;4994834;28;20215;-79
2022/11/08 00:50:47;;;;;;;5.75;1.70;;;13.60;99.90;;;;;;5012201;28;20169;-79
2022/11/08 00:53:13;;;;;;;8.77;1.50;;;13.60;99.90;;;;;;5012578;28;20180;-79
2022/11/08 00:55:38;;;;;;;9.40;1.80;;;13.80;99.90;;;;;;4995143;28;20165;-80
2022/11/08 00:58:04;;;;;;;5.95;1.50;;;13.90;99.90;;;;;;5012480;28;20204;-80
2022/11/08 01:00:29;;;;;;;8.75;1.85;;;13.80;99.90;;;;;;4994975;28;20259;-79
2022/11/08 01:05:39;;;;;;;5.88;1.70;;;13.80;99.90;;;;;;5013007;28;20263;-79
2022/11/08 01:08:05;;;;;;;9.38;1.58;;;13.70;99.90;;;;;;5012285;28;20189;-80
2022/11/08 01:10:31;;;;;;;4.43;1.42;;;13.80;99.90;;;;;;5012535;28;20728;-80
2022/11/08 01:12:56;;;;;;;4.35;1.67;;;13.80;99.90;;;;;;5012476;28;20219;-79
2022/11/08 01:15:22;;;;;;;6.20;1.60;;;13.80;99.90;;;;;;4994717;28;20164;-80
2022/11/08 01:17:48;;;;;;;2.63;1.50;;;13.90;99.90;;;;;;5012115;28;20276;-78
2022/11/08 01:20:13;;;;;;;7.30;1.83;;;13.80;99.90;;;;;;5013899;28;20617;-78
2022/11/08 01:22:39;;;;;;;4.70;1.58;;;13.80;99.90;;;;;;5016360;28;20432;-79
2022/11/08 01:25:05;;;;;;;8.65;1.95;;;13.70;99.90;;;;;;5015972;28;20223;-78
2022/11/08 01:27:30;;;;;;;4.93;1.67;;;13.60;99.90;;;;;;5015732;28;20242;-78
2022/11/08 01:29:57;;;;;;;3.08;1.63;;;13.50;99.90;;;;;;5020619;28;20172;-79
2022/11/08 01:32:23;;;;;;;10.25;2.40;;;13.60;99.90;;;;;;5006683;28;20176;-81
2022/11/08 01:34:49;;;;;;;12.80;1.60;;;13.50;99.90;;;;;;5021758;28;20740;-80
2022/11/08 01:37:14;;;;;;;7.88;1.50;;;13.60;99.90;;;;;;5021482;28;20649;-79
2022/11/08 01:39:40;;;;;;;10.70;1.15;;;13.60;99.90;;;;;;5021339;28;20218;-78
2022/11/08 01:42:05;;;;;;;2.83;1.20;;;13.50;99.90;;;;;;5020703;28;20168;-79
2022/11/08 01:44:31;;;;;;;3.53;1.15;;;13.50;99.90;;;;;;5003123;28;20181;-80
2022/11/08 01:46:57;;;;;;;6.75;1.60;;;13.40;99.90;;;;;;5019451;28;20673;-79
2022/11/08 01:49:38;;;;;;;4.63;1.33;;;13.30;99.90;;;;;;5019985;28;20193;-80
2022/11/08 01:52:21;;;;;;;5.55;1.48;;;13.40;99.90;;;;;;5003087;28;20176;-80
2022/11/08 01:54:53;;;;;;;5.25;1.90;;;13.40;99.90;;;;;;5004379;28;20184;-79
2022/11/08 01:57:31;;;;;;;3.35;1.45;;;13.40;99.90;;;;;;5003676;28;20212;-81
2022/11/08 01:59:59;;;;;;;3.47;1.70;;;13.50;99.90;;;;;;5021464;28;20175;-79
2022/11/08 02:02:26;;;;;;;8.63;1.70;;;13.50;99.90;;;;;;5026107;28;20165;-79
2022/11/08 02:04:53;;;;;;;3.25;1.35;;;13.60;99.90;;;;;;5009757;28;20231;-80
2022/11/08 02:07:19;;;;;;;6.68;1.90;;;13.40;99.90;;;;;;5007477;28;20247;-78
2022/11/08 02:09:46;;;;;;;4.00;1.98;;;13.40;99.90;;;;;;5023381;28;20173;-81
2022/11/08 02:12:14;;;;;;;2.83;1.70;;;13.50;99.90;;;;;;4999284;28;20172;-81
2022/11/08 02:14:40;;;;;;;5.15;1.38;;;13.60;99.90;;;;;;5027470;28;20211;-80
2022/11/08 02:17:08;;;;;;;8.43;2.47;;;13.50;99.90;;;;;;5002704;28;20227;-80
2022/11/08 02:19:46;;;;;;;9.48;1.95;;;13.50;99.90;;;;;;5002459;28;20543;-80
2022/11/08 02:22:27;;;;;;;7.60;1.77;;;13.40;99.90;;;;;;5020116;28;20169;-81
2022/11/08 02:24:54;;;;;;;1.20;1.10;;;13.20;99.90;;;;;;5018720;28;20207;-80
2022/11/08 02:27:20;;;;;;;10.65;2.05;;;13.20;99.90;;;;;;5006829;28;20200;-80
2022/11/08 02:29:46;;;;;;;6.28;1.70;;;13.30;99.90;;;;;;5003438;28;20160;-80
2022/11/08 02:32:11;;;;;;;6.18;1.77;;;13.30;99.90;;;;;;5003598;28;20640;-79
2022/11/08 02:34:49;;;;;;;8.82;1.77;;;13.20;99.90;;;;;;5022788;28;20176;-81
2022/11/08 02:37:20;;;;;;;3.22;1.60;;;13.20;99.90;;;;;;5003382;28;20207;-80
2022/11/08 02:39:49;;;;;;;4.95;1.42;;;13.20;99.90;;;;;;5003594;28;20227;-80
2022/11/08 02:42:17;;;;;;;7.10;1.40;;;13.10;99.90;;;;;;5002846;28;20196;-81
2022/11/08 02:44:43;;;;;;;5.57;1.42;;;13.00;99.90;;;;;;5021805;28;20580;-82
2022/11/08 02:47:09;;;;;;;7.45;1.60;;;13.10;99.90;;;;;;5021612;28;20175;-81
2022/11/08 02:49:35;;;;;;;3.35;1.95;;;13.10;99.90;;;;;;5005667;28;20164;-81
2022/11/08 02:52:01;;;;;;;2.22;1.50;;;13.10;99.90;;;;;;5022540;28;20263;-81
2022/11/08 02:54:26;;;;;;;3.78;1.38;;;13.10;99.90;;;;;;4998081;28;20192;-82
2022/11/08 02:56:52;;;;;;;3.60;1.70;;;13.20;99.90;;;;;;5014275;28;20644;-84
2022/11/08 02:59:17;;;;;;;4.75;1.40;;;13.20;99.90;;;;;;5014147;28;20188;-82
2022/11/08 03:01:43;;;;;;;5.07;1.45;;;13.10;99.90;;;;;;5014723;28;20259;-82
2022/11/08 03:04:09;;;;;;;7.38;1.42;;;13.00;99.90;;;;;;4996885;28;20541;-80
2022/11/08 03:06:35;;;;;;;5.05;1.63;;;13.10;99.90;;;;;;4996400;28;20172;-80
2022/11/08 03:09:00;;;;;;;2.40;1.35;;;13.00;99.90;;;;;;5013939;28;20215;-79
2022/11/08 03:11:27;;;;;;;3.83;1.42;;;12.90;99.90;;;;;;4996803;28;20227;-80
2022/11/08 03:13:52;;;;;;;5.35;1.23;;;12.90;99.90;;;;;;5014152;28;20165;-80
2022/11/08 03:16:18;;;;;;;6.57;1.40;;;12.80;99.90;;;;;;5014618;28;20181;-82
2022/11/08 03:18:43;;;;;;;6.45;1.40;;;12.70;99.90;;;;;;5013921;28;20250;-85
2022/11/08 03:21:09;;;;;;;1.95;1.30;;;12.80;99.90;;;;;;5019851;28;20188;-82
2022/11/08 03:23:36;;;;;;;7.30;1.20;;;12.80;99.90;;;;;;5011567;28;20176;-80
2022/11/08 03:26:02;;;;;;;4.40;1.48;;;12.70;99.90;;;;;;5028125;28;20169;-80
2022/11/08 03:28:28;;;;;;;6.82;1.15;;;12.70;99.90;;;;;;5029346;28;20271;-85
2022/11/08 03:30:54;;;;;;;1.88;1.30;;;12.80;99.90;;;;;;5021001;28;20171;-80
2022/11/08 03:33:23;;;;;;;1.58;1.17;;;12.80;99.90;;;;;;5006565;28;20177;-81
2022/11/08 03:35:50;;;;;;;4.47;1.50;;;12.80;99.90;;;;;;5000611;28;20227;-81
2022/11/08 03:38:15;;;;;;;1.92;1.00;;;12.90;99.90;;;;;;5001044;28;20208;-81
2022/11/08 03:40:42;;;;;;;2.15;1.40;;;12.80;99.90;;;;;;5010236;28;20252;-80
2022/11/08 03:43:08;;;;;;;3.15;1.20;;;12.80;99.90;;;;;;5023559;28;20173;-80
2022/11/08 03:45:33;;;;;;;3.08;1.50;;;12.90;99.90;;;;;;5003061;28;20161;-80
2022/11/08 03:47:59;;;;;;;1.42;1.33;;;13.00;99.90;;;;;;5018263;28;20685;-86
2022/11/08 03:50:25;;;;;;;6.05;1.10;;;12.90;99.90;;;;;;4996024;28;20180;-82
2022/11/08 03:52:53;;;;;;;10.55;0.88;;;12.90;99.90;;;;;;4995852;28;20935;-81
2022/11/08 03:55:21;;;;;;;4.47;1.25;;;13.00;99.90;;;;;;5013410;28;20283;-78
2022/11/08 03:57:48;;;;;;;1.67;1.08;;;12.90;99.90;;;;;;5013236;28;20236;-78
2022/11/08 04:00:16;;;;;;;1.98;1.02;;;12.80;99.90;;;;;;5013642;28;20161;-79
2022/11/08 04:02:42;;;;;;;4.20;1.38;;;12.80;99.90;;;;;;5004758;28;20238;-79
2022/11/08 04:05:12;;;;;;;1.20;1.10;;;12.80;99.90;;;;;;5000696;28;20169;-80
2022/11/08 04:07:38;;;;;;;2.90;1.30;;;12.90;99.90;;;;;;5020153;28;20239;-83
2022/11/08 04:10:06;;;;;;;16.02;1.40;;;12.80;99.90;;;;;;5019961;28;20628;-79
2022/11/08 04:15:18;;;;;;;2.97;1.30;;;12.80;99.90;;;;;;5017396;28;20188;-81
2022/11/08 04:23:25;;;;;;;2.70;1.00;;;12.60;99.90;;;;;;5017099;28;20188;-80
2022/11/08 04:25:55;;;;;;;5.07;1.30;;;12.60;99.90;;;;;;4998101;28;20167;-82
2022/11/08 04:28:26;;;;;;;12.48;1.50;;;12.60;99.90;;;;;;5014916;28;20192;-80
2022/11/08 04:30:53;;;;;;;5.28;1.48;;;12.50;99.90;;;;;;4997452;28;20260;-79
2022/11/08 04:33:22;;;;;;;16.92;1.52;;;12.60;99.90;;;;;;5001867;28;20260;-80
2022/11/08 04:35:48;;;;;;;4.95;1.30;;;12.70;99.90;;;;;;5018179;28;20599;-81
2022/11/08 04:38:14;;;;;;;1.20;1.10;;;12.70;99.90;;;;;;4997996;28;20212;-79
2022/11/08 04:40:40;;;;;;;1.38;0.93;;;12.80;99.90;;;;;;4998997;28;20588;-79
2022/11/08 04:43:05;;;;;;;3.85;1.20;;;12.80;99.90;;;;;;4997578;28;20172;-79
2022/11/08 04:45:31;;;;;;;4.05;1.33;;;13.00;99.90;;;;;;5016136;28;20599;-80
2022/11/08 04:47:56;;;;;;;2.55;1.17;;;12.90;99.90;;;;;;5012396;28;20192;-78
2022/11/08 04:50:22;;;;;;;2.63;1.40;;;12.80;99.90;;;;;;5012791;28;20243;-79
2022/11/08 04:52:52;;;;;;;3.00;1.30;;;12.80;99.90;;;;;;5012939;28;20477;-78
2022/11/08 04:55:19;;;;;;;1.10;1.00;;;12.70;99.90;;;;;;5015895;28;20182;-78
2022/11/08 04:57:45;;;;;;;9.15;1.58;;;12.70;99.90;;;;;;5016235;28;20230;-79
2022/11/08 05:00:11;;;;;;;1.83;1.23;;;12.70;99.90;;;;;;4998773;28;20215;-78
2022/11/08 05:02:37;;;;;;;6.53;1.45;;;12.80;99.90;;;;;;5016178;28;20251;-82
2022/11/08 05:05:02;;;;;;;5.38;1.30;;;12.70;99.90;;;;;;4998437;28;20230;-78
2022/11/08 05:07:28;;;;;;;2.92;1.45;;;12.60;99.90;;;;;;5017719;28;20188;-80
2022/11/08 05:09:55;;;;;;;4.20;1.33;;;12.90;99.90;;;;;;5016970;28;20161;-80
2022/11/08 05:12:20;;;;;;;1.70;1.10;;;12.80;99.90;;;;;;5000670;28;20184;-81
2022/11/08 05:14:46;;;;;;;3.05;1.17;;;12.70;99.90;;;;;;5018612;28;20177;-81
2022/11/08 05:17:12;;;;;;;3.95;1.70;;;12.60;99.90;;;;;;4999945;28;20808;-80
2022/11/08 05:25:06;;;;;;;10.93;1.80;;;12.60;99.90;;;;;;5015668;28;20234;-80
2022/11/08 05:27:33;;;;;;;3.85;1.20;;;12.70;99.90;;;;;;5015851;28;20197;-80
2022/11/08 05:29:58;;;;;;;2.28;1.35;;;12.80;99.90;;;;;;4998594;28;20227;-81
2022/11/08 05:32:24;;;;;;;1.67;1.15;;;12.80;99.90;;;;;;4997885;28;20177;-81
2022/11/08 05:34:49;;;;;;;1.98;1.45;;;12.80;99.90;;;;;;4998144;28;20700;-80
2022/11/08 05:37:15;;;;;;;5.10;1.52;;;12.90;99.90;;;;;;5015398;28;20220;-81
2022/11/08 05:39:40;;;;;;;2.75;0.95;;;12.90;99.90;;;;;;5015196;28;20176;-81
2022/11/08 05:42:06;;;;;;;4.07;1.42;;;12.80;99.90;;;;;;4998146;28;20175;-80
2022/11/08 05:44:31;;;;;;;4.15;1.35;;;12.80;99.90;;;;;;5015478;28;20207;-80
2022/11/08 05:46:57;;;;;;;1.30;1.10;;;12.80;99.90;;;;;;5015648;28;20215;-80
2022/11/08 05:49:23;;;;;;;2.08;1.17;;;12.80;99.90;;;;;;5015334;28;20259;-81
2022/11/08 05:51:48;;;;;;;1.35;1.00;;;12.70;99.90;;;;;;5015554;28;20165;-81
2022/11/08 05:54:14;;;;;;;1.15;1.08;;;12.70;99.90;;;;;;4997827;28;20192;-80
2022/11/08 05:56:39;;;;;;;8.93;1.00;;;12.90;99.90;;;;;;4997965;28;20275;-80
2022/11/08 05:59:05;;;;;;;1.88;1.20;;;13.00;99.90;;;;;;5015074;28;20204;-80
2022/11/08 06:01:31;;;;;;;1.58;1.17;;;13.10;99.90;;;;;;4997540;28;20621;-81
2022/11/08 06:03:56;;;;;;;3.47;1.70;;;13.00;99.90;;;;;;4997286;28;20571;-80
2022/11/08 06:06:22;;;;;;;3.45;1.10;;;13.10;99.90;;;;;;5013987;28;20180;-79
2022/11/08 06:08:48;;;;;;;1.88;1.05;;;13.00;99.90;;;;;;5014502;28;20765;-80
2022/11/08 06:11:20;;;;;;;2.58;1.10;;;12.90;99.90;;;;;;5014613;28;20161;-80
2022/11/08 06:13:46;;;;;;;4.15;1.00;;;12.90;99.90;;;;;;5014990;28;20160;-80
2022/11/08 06:16:13;;;;;;;2.50;1.30;;;13.10;99.90;;;;;;5014633;28;20539;-81
2022/11/08 06:18:39;;;;;;;5.65;1.27;;;13.10;99.90;;;;;;5014651;28;20575;-81
2022/11/08 06:21:07;;;;;;;4.55;1.35;;;13.10;99.90;;;;;;5014379;28;20739;-80
2022/11/08 06:23:33;;;;;;;1.63;1.30;;;13.10;99.90;;;;;;5014527;28;20252;-81
2022/11/08 06:25:59;;;;;;;2.00;1.23;;;13.10;99.90;;;;;;4997213;28;20602;-82
2022/11/08 06:28:26;;;;;;;2.92;1.40;;;13.10;99.90;;;;;;4996875;28;20193;-80
2022/11/08 06:30:51;;;;;;;1.63;1.15;;;13.00;99.90;;;;;;5014079;28;20168;-81
2022/11/08 06:33:18;;;;;;;2.35;1.48;;;13.00;99.90;;;;;;5014596;28;20172;-80
2022/11/08 06:35:44;;;;;;;2.35;1.13;;;12.90;99.90;;;;;;5014169;28;20235;-80
2022/11/08 06:38:10;;;;;;;1.23;1.00;;;12.80;99.90;;;;;;5014297;28;20677;-81
2022/11/08 06:40:39;;;;;;;2.08;1.20;;;12.90;99.90;;;;;;5014181;28;20252;-82
2022/11/08 06:43:05;;;;;;;2.75;2.00;;;12.80;99.90;;;;;;5013733;28;20182;-80
2022/11/08 06:45:31;;;;;;;4.38;1.38;;;12.80;99.90;;;;;;4996244;28;20195;-80
2022/11/08 06:47:58;;;;;;;1.45;1.00;;;12.90;99.90;;;;;;5013798;28;20260;-80
2022/11/08 06:50:25;;;;;;;3.97;1.55;;;13.00;99.90;;;;;;4996377;28;20184;-80
2022/11/08 06:52:57;;;;;;;1.40;1.30;;;12.90;99.90;;;;;;4997997;28;20231;-87
2022/11/08 06:55:23;;;;;;;2.92;1.50;;;12.90;99.90;;;;;;5014647;28;20272;-81
2022/11/08 06:57:48;;;;;;;1.38;1.27;;;13.00;99.90;;;;;;5013229;28;20236;-80
2022/11/08 07:00:15;;;;;;;1.95;1.40;;;13.00;99.90;;;;;;4995847;28;20227;-82
2022/11/08 07:02:43;;;;;;;2.53;1.50;;;12.90;99.90;;;;;;5013466;28;20172;-82
2022/11/08 07:05:11;;;;;;;2.03;1.50;;;13.00;99.90;;;;;;4995991;28;20573;-81
2022/11/08 07:07:37;;;;;;;1.75;1.30;;;13.00;99.90;;;;;;5013836;28;20215;-82
2022/11/08 07:10:03;;;;;;;5.43;1.20;;;13.00;99.90;;;;;;4996312;28;20165;-83
2022/11/08 07:12:29;;;;;;;3.63;1.60;;;13.00;99.90;;;;;;4995863;28;20218;-83
2022/11/08 07:14:55;;;;;;;3.40;1.23;;;13.10;99.90;;;;;;4996467;28;20537;-81
2022/11/08 07:17:20;;;;;;;4.50;1.13;;;13.10;99.90;;;;;;4994689;28;20207;-82
2022/11/08 07:19:46;;;;;;;7.03;1.55;;;13.10;99.90;;;;;;5013400;28;20165;-80
2022/11/08 07:22:12;;;;;;;13.43;1.30;;;13.30;99.90;;;;;;4995816;28;20177;-80
2022/11/08 07:24:37;;;;;;;1.75;1.00;;;13.20;99.90;;;;;;4995526;28;20172;-81
2022/11/08 07:27:03;;;;;;;4.80;1.23;;;13.20;99.90;;;;;;4995676;28;20251;-79
2022/11/08 07:29:28;;;;;;;4.53;1.33;;;13.10;99.90;;;;;;4995605;28;20200;-80
2022/11/08 07:31:54;;;;;;;2.40;1.25;;;13.20;99.90;;;;;;4995830;28;20161;-81
2022/11/08 07:34:20;;;;;;;2.60;1.23;;;13.30;99.90;;;;;;5013357;28;20677;-81
2022/11/08 07:36:45;;;;;;;4.18;1.45;;;13.20;99.90;;;;;;4996541;28;20179;-82
2022/11/08 07:39:11;;;;;;;5.05;1.20;;;13.20;99.90;;;;;;5014183;28;20681;-80
2022/11/08 07:41:37;;;;;;;2.53;1.35;;;13.20;99.90;;;;;;4995627;28;20207;-80
2022/11/08 07:44:02;;;;;;;8.02;1.52;;;13.20;99.90;;;;;;5013259;28;20633;-81
2022/11/08 07:46:28;;;;;;;1.05;0.98;;;13.20;99.90;;;;;;5013596;28;20172;-82
2022/11/08 07:48:54;;;;;;;3.67;1.33;;;13.20;99.90;;;;;;5013423;28;20184;-81
2022/11/08 07:51:19;;;;;;;6.30;1.60;;;13.40;99.90;;;;;;5013020;28;20234;-82
2022/11/08 07:53:45;;;;;;;2.80;1.50;;;13.60;99.90;;;;;;5012925;28;20184;-81
2022/11/08 07:56:11;;;;;;;3.53;1.42;;;13.60;99.90;;;;;;4995678;28;20176;-81
2022/11/08 07:58:37;;;;;;;8.68;1.55;;;13.60;99.90;;;;;;5013301;28;20711;-81
2022/11/08 08:01:03;;;;;;;3.40;1.50;;;13.80;99.90;;;;;;4995190;28;20173;-81
2022/11/08 08:03:30;;;;;;;4.25;1.23;;;13.90;99.90;;;;;;4995137;28;20172;-81
2022/11/08 08:05:55;;;;;;;1.85;1.55;;;14.00;99.90;;;;;;5008588;28;20177;-82
2022/11/08 08:08:21;;;;;;;4.28;1.30;;;14.00;99.90;;;;;;5012731;28;20188;-81
2022/11/08 08:10:47;;;;;;;5.95;1.38;;;14.10;99.90;;;;;;5012827;28;20179;-91
2022/11/08 08:13:13;;;;;;;2.50;1.35;;;14.20;99.90;;;;;;5012594;28;20213;-82
2022/11/08 08:15:38;;;;;;;2.13;1.17;;;14.30;99.90;;;;;;5013015;28;20219;-81
2022/11/08 08:18:05;;;;;;;1.60;1.13;;;14.40;99.90;;;;;;5011315;28;20204;-81
2022/11/08 08:20:31;;;;;;;3.58;1.15;;;14.40;99.90;;;;;;5012979;28;20262;-81
2022/11/08 08:22:58;;;;;;;11.35;1.35;;;14.40;99.90;;;;;;5011238;28;20208;-81
2022/11/08 08:25:24;;;;;;;3.35;1.67;;;14.50;99.90;;;;;;5010955;28;20161;-83
2022/11/08 08:27:55;;;;;;;2.97;1.35;;;14.60;99.90;;;;;;5011154;28;20221;-84
2022/11/08 08:30:21;;;;;;;4.00;1.30;;;14.70;99.90;;;;;;5011082;28;20545;-81
2022/11/08 08:32:48;;;;;;;3.05;1.20;;;14.80;99.90;;;;;;5011945;28;20161;-82
2022/11/08 08:35:14;;;;;;;1.75;1.10;;;14.70;99.90;;;;;;5012207;28;20168;-82
2022/11/08 08:37:40;;;;;;;3.58;1.20;;;14.60;99.90;;;;;;5012010;28;20216;-83
2022/11/08 08:40:07;;;;;;;1.55;1.23;;;14.60;99.90;;;;;;5011272;28;20643;-82
2022/11/08 08:42:33;;;;;;;3.95;1.00;;;14.60;99.90;;;;;;5012364;28;20230;-81
2022/11/08 08:44:59;;;;;;;0.88;0.85;;;14.60;99.90;;;;;;5011017;28;20168;-82
2022/11/08 08:47:25;;;;;;;2.22;1.25;;;14.60;99.90;;;;;;5011461;28;20696;-82
2022/11/08 08:49:51;;;;;;;3.90;1.30;;;14.70;99.90;;;;;;5011844;28;20220;-89
2022/11/08 08:52:16;;;;;;;2.67;1.40;;;14.90;99.90;;;;;;5011907;28;20171;-88
2022/11/08 08:54:42;;;;;;;2.88;1.33;;;14.80;99.90;;;;;;5011092;28;20223;-79
2022/11/08 08:57:08;;;;;;;8.95;2.25;;;14.90;99.90;;;;;;5010746;28;20169;-82
2022/11/08 08:59:33;;;;;;;2.30;1.20;;;15.10;99.90;;;;;;5012056;28;20175;-80
2022/11/08 09:01:59;;;;;;;4.00;1.42;;;15.30;99.90;;;;;;5010439;28;20221;-81
2022/11/08 09:04:26;;;;;;;5.57;1.30;;;15.60;99.90;;;;;;4997292;28;20267;-81
2022/11/08 09:06:52;;;;;;;4.50;1.60;;;15.80;99.90;;;;;;4994383;28;20551;-86
2022/11/08 09:09:17;;;;;;;3.03;1.35;;;15.80;99.90;;;;;;5012262;28;20184;-81
2022/11/08 09:11:43;;;;;;;2.13;1.15;;;15.80;99.90;;;;;;5012636;28;20169;-87
2022/11/08 09:14:08;;;;;;;1.83;0.90;;;15.90;99.90;;;;;;5012279;28;20524;-83
2022/11/08 09:16:34;;;;;;;8.35;1.35;;;15.90;99.90;;;;;;4994330;28;20220;-78
2022/11/08 09:19:00;;;;;;;8.50;1.20;;;15.80;99.90;;;;;;5011780;28;20215;-79
2022/11/08 09:21:25;;;;;;;1.55;1.00;;;15.70;99.90;;;;;;5012319;28;20165;-79
2022/11/08 09:23:51;;;;;;;10.10;1.25;;;15.80;99.90;;;;;;5012212;28;20172;-79
2022/11/08 09:26:16;;;;;;;6.30;1.42;;;15.70;99.90;;;;;;5012091;28;20215;-90
2022/11/08 09:28:42;;;;;;;2.58;1.20;;;15.60;99.90;;;;;;5012027;28;20185;-83
2022/11/08 09:31:09;;;;;;;6.35;1.30;;;15.60;99.90;;;;;;5012083;28;20198;-82
2022/11/08 09:33:37;;;;;;;1.27;1.08;;;15.60;99.90;;;;;;5011903;28;20219;-81
2022/11/08 09:36:04;;;;;;;2.33;1.58;;;15.80;99.90;;;;;;5011853;28;20169;-79
2022/11/08 09:38:30;;;;;;;3.08;1.50;;;15.80;99.90;;;;;;5012024;28;20209;-93
2022/11/08 09:41:05;;;;;;;3.72;1.48;;;15.90;99.90;;;;;;5014653;28;20184;-83
2022/11/08 09:43:54;;;;;;;1.65;1.23;;;15.60;99.90;;;;;;4997698;28;20699;-83
2022/11/08 09:46:43;;;;;;;3.03;1.40;;;15.70;99.90;;;;;;5015818;28;20191;-81
2022/11/08 09:49:18;;;;;;;4.10;1.40;;;15.80;99.90;;;;;;5015424;28;20193;-82
2022/11/08 09:51:43;;;;;;;3.47;1.23;;;15.90;99.90;;;;;;5015587;28;20243;-80
2022/11/08 09:54:36;;;;;;;4.03;1.63;;;16.00;99.90;;;;;;5016363;28;20203;-84
2022/11/08 09:57:04;;;;;;;2.17;1.48;;;16.00;99.90;;;;;;5015417;28;20165;-83
2022/11/08 09:59:49;;;;;;;4.13;1.40;;;16.20;99.90;;;;;;4997078;28;20612;-80
2022/11/08 10:02:20;;;;;;;2.10;1.30;;;16.10;99.90;;;;;;5015974;28;20169;-81
2022/11/08 10:05:14;;;;;;;6.65;1.30;;;16.10;99.90;;;;;;5015261;28;20640;-82
2022/11/08 10:07:55;;;;;;;13.70;1.35;;;16.20;99.90;;;;;;5006148;28;20203;-85
2022/11/08 10:10:49;;;;;;;8.25;1.38;;;16.40;99.90;;;;;;4998225;28;20168;-83
2022/11/08 10:13:19;;;;;;;6.30;2.20;;;16.40;99.90;;;;;;5015773;28;20298;-84
2022/11/08 10:16:07;;;;;;;2.08;1.20;;;16.50;99.90;;;;;;5018393;28;20171;-93
2022/11/08 10:18:38;;;;;;;5.90;1.10;;;16.60;99.90;;;;;;5000314;28;20211;-91
2022/11/08 10:21:30;;;;;;;4.53;1.20;;;16.40;99.90;;;;;;4999852;28;20168;-95
2022/11/08 10:24:06;;;;;;;1.45;1.20;;;16.40;99.90;;;;;;4999975;28;20516;-86
2022/11/08 10:26:41;;;;;;;7.57;1.33;;;16.30;99.90;;;;;;4999775;28;20160;-88
2022/11/08 10:29:13;;;;;;;3.83;1.02;;;16.20;99.90;;;;;;5014701;28;20306;-85
2022/11/08 10:31:40;;;;;;;2.47;1.50;;;16.20;99.90;;;;;;5014773;28;20171;-85
2022/11/08 10:34:16;;;;;;;2.75;1.27;;;16.20;99.90;;;;;;5016452;28;20169;-86
2022/11/08 10:36:53;;;;;;;3.72;1.08;;;16.30;99.90;;;;;;5015810;28;20651;-86
2022/11/08 10:39:33;;;;;;;2.50;1.17;;;16.20;99.90;;;;;;5000466;28;20242;-90
2022/11/08 10:42:19;;;;;;;5.75;2.00;;;16.20;99.90;;;;;;5009844;28;20172;-82
2022/11/08 10:44:45;;;;;;;3.85;1.52;;;16.10;99.90;;;;;;5028855;28;20215;-81
2022/11/08 10:47:23;;;;;;;3.15;1.60;;;16.20;99.90;;;;;;5018585;28;20227;-80
2022/11/08 10:49:49;;;;;;;1.65;1.02;;;16.40;99.90;;;;;;5019705;28;20156;-84
2022/11/08 10:52:27;;;;;;;8.10;1.42;;;16.50;99.90;;;;;;5017665;28;20188;-82
2022/11/08 10:54:58;;;;;;;5.53;1.40;;;16.60;99.90;;;;;;5015746;28;20219;-90
2022/11/08 10:57:27;;;;;;;7.03;1.50;;;16.50;99.90;;;;;;4997612;28;20249;-83
2022/11/08 10:59:54;;;;;;;8.95;1.60;;;16.50;99.90;;;;;;4997944;28;20703;-81
2022/11/08 11:02:34;;;;;;;2.00;1.40;;;16.40;99.90;;;;;;4998458;28;20172;-81
2022/11/08 11:05:18;;;;;;;2.20;1.35;;;16.30;99.90;;;;;;4997691;28;20168;-89
2022/11/08 11:08:07;;;;;;;2.03;1.20;;;16.20;99.90;;;;;;4998451;28;20200;-88
2022/11/08 11:10:39;;;;;;;3.67;1.25;;;16.30;99.90;;;;;;5015413;28;20168;-89
2022/11/08 11:13:18;;;;;;;6.80;1.02;;;16.50;99.90;;;;;;4998077;28;20720;-88
2022/11/08 11:15:57;;;;;;;2.95;1.60;;;16.50;99.90;;;;;;4997808;28;20176;-88
2022/11/08 11:18:33;;;;;;;6.05;1.40;;;16.50;99.90;;;;;;4997004;28;20211;-88
2022/11/08 11:21:10;;;;;;;6.80;1.38;;;16.60;99.90;;;;;;5015028;28;20513;-81
2022/11/08 11:23:44;;;;;;;5.13;1.63;;;16.60;99.90;;;;;;5014265;28;20187;-82
2022/11/08 11:26:28;;;;;;;3.08;1.23;;;16.60;99.90;;;;;;4996809;28;20171;-82
2022/11/08 11:29:04;;;;;;;5.50;1.20;;;16.70;99.90;;;;;;4996311;28;20188;-85
2022/11/08 11:31:32;;;;;;;1.27;1.00;;;16.80;99.90;;;;;;4997564;28;20238;-81
2022/11/08 11:34:16;;;;;;;2.17;1.38;;;16.90;99.90;;;;;;4996878;28;20172;-81
2022/11/08 11:36:50;;;;;;;4.50;1.17;;;16.90;99.90;;;;;;4997067;28;20183;-90
2022/11/08 11:39:21;;;;;;;2.10;1.38;;;16.90;99.90;;;;;;4997617;28;20225;-85
2022/11/08 11:41:52;;;;;;;1.95;1.75;;;17.00;99.90;;;;;;4997077;28;20284;-82
2022/11/08 11:44:23;;;;;;;3.33;1.27;;;17.10;99.90;;;;;;4998118;28;20192;-81
2022/11/08 11:47:16;;;;;;;2.30;1.42;;;17.20;99.90;;;;;;4996914;28;20255;-83
2022/11/08 11:49:44;;;;;;;3.85;1.40;;;17.00;99.90;;;;;;4996773;28;20164;-85
2022/11/08 11:52:17;;;;;;;2.72;1.35;;;16.90;99.90;;;;;;4996134;28;20541;-82
2022/11/08 11:54:45;;;;;;;2.83;1.27;;;16.80;99.90;;;;;;4996127;28;20195;-83
2022/11/08 11:57:20;;;;;;;3.78;1.27;;;16.70;99.90;;;;;;4995946;28;20172;-81
2022/11/08 12:00:11;;;;;;;7.82;1.48;;;16.70;99.90;;;;;;5013983;28;20203;-83
2022/11/08 12:03:16;;;;;;;2.15;1.45;;;16.50;99.90;;;;;;4995759;28;20251;-85
2022/11/08 12:06:16;;;;;;;4.40;1.15;;;16.60;99.90;;;;;;4997380;28;20176;-83
2022/11/08 12:09:06;;;;;;;2.78;1.67;;;16.50;99.90;;;;;;4999882;28;20271;-84
2022/11/08 12:12:05;;;;;;;9.10;1.20;;;16.40;99.90;;;;;;4997257;28;20177;-82
2022/11/08 12:14:40;;;;;;;4.28;1.13;;;16.40;99.90;;;;;;5021038;28;20226;-80
2022/11/08 12:17:29;;;;;;;5.78;1.38;;;16.50;99.90;;;;;;5024492;28;20241;-83
2022/11/08 12:20:34;;;;;;;8.85;1.45;;;16.50;99.90;;;;;;5028383;28;20181;-81
2022/11/08 12:23:28;;;;;;;3.10;1.23;;;16.50;99.90;;;;;;5029931;28;20165;-79
2022/11/08 12:26:06;;;;;;;4.05;1.30;;;16.60;99.90;;;;;;5026499;28;20176;-79
2022/11/08 12:28:46;;;;;;;3.22;1.42;;;16.60;99.90;;;;;;5027075;28;20188;-79
2022/11/08 12:31:22;;;;;;;4.78;1.40;;;16.80;99.90;;;;;;5029891;28;20179;-79
2022/11/08 12:34:36;;;;;;;5.43;1.48;;;16.80;99.90;;;;;;5033081;28;20190;-79
2022/11/08 12:37:43;;;;;;;2.42;1.40;;;17.00;99.90;;;;;;5013433;28;20653;-79
2022/11/08 12:40:47;;;;;;;3.30;1.35;;;16.90;99.90;;;;;;4990367;28;20200;-79
2022/11/08 12:43:36;;;;;;;4.28;1.50;;;16.70;99.90;;;;;;4917143;29;20167;-79
2022/11/08 12:46:18;;;;;;;1.40;1.30;;;16.70;99.90;;;;;;5030792;28;20176;-79
2022/11/08 12:49:30;;;;;;;2.80;1.13;;;16.80;99.90;;;;;;5013233;28;20199;-82
2022/11/08 12:52:15;;;;;;;3.22;1.45;;;16.80;99.90;;;;;;5010430;28;20232;-84
2022/11/08 12:54:53;;;;;;;4.18;1.80;;;16.80;99.90;;;;;;5006556;28;20267;-80
2022/11/08 12:57:26;;;;;;;8.02;1.60;;;16.80;99.90;;;;;;4996785;28;20252;-79
2022/11/08 13:00:14;;;;;;;2.58;1.20;;;16.80;99.90;;;;;;5017479;28;20223;-82
2022/11/08 13:02:42;;;;;;;6.50;1.45;;;16.80;99.90;;;;;;5018151;28;20225;-84
2022/11/08 13:05:23;;;;;;;6.45;1.98;;;16.70;99.90;;;;;;5002424;28;20192;-82
2022/11/08 13:08:03;;;;;;;4.55;1.30;;;16.70;99.90;;;;;;5021249;28;20211;-81
2022/11/08 13:10:46;;;;;;;4.70;1.23;;;16.80;99.90;;;;;;5024228;28;20160;-80
2022/11/08 13:13:18;;;;;;;2.63;1.33;;;16.80;99.90;;;;;;5002803;28;20172;-87
2022/11/08 13:16:06;;;;;;;3.72;1.33;;;16.80;99.90;;;;;;5013157;28;20191;-80
2022/11/08 13:18:34;;;;;;;16.05;1.73;;;16.80;99.90;;;;;;5027318;28;20208;-80
2022/11/08 13:21:20;;;;;;;2.17;1.30;;;17.00;99.90;;;;;;5017843;28;20528;-83
2022/11/08 13:23:45;;;;;;;11.05;1.85;;;17.00;99.90;;;;;;5017965;28;20183;-79
2022/11/08 13:26:22;;;;;;;6.38;1.60;;;17.10;99.90;;;;;;5019092;28;20173;-85
2022/11/08 13:28:48;;;;;;;3.35;1.17;;;17.10;99.90;;;;;;5019429;28;20684;-79